Time;durP1;ratioP1;P1;durP2;ratioP2;P2;SDS_P1;SDS_P2;PMS_P1;PMS_P2;Temp;Humidity;BMP_temperature;BMP_pressure;BME280_temperature;BME280_humidity;BME280_pressure;Samples;Min_cycle;Max_cycle;Signal;HPM_P1;HPM_P2
2023/09/13 00:00:46;;;;;;;13.60;12.35;;;;;;;19.06;100.00;101340.34;6249717;22;20509;-79
2023/09/13 00:03:13;;;;;;;14.20;12.68;;;;;;;19.07;100.00;101341.06;6249424;22;20043;-79
2023/09/13 00:05:42;;;;;;;17.17;13.48;;;;;;;19.06;100.00;101339.59;6221844;22;20021;-79
2023/09/13 00:08:09;;;;;;;14.23;12.10;;;;;;;19.07;100.00;101346.47;6249478;22;20013;-79
2023/09/13 00:10:36;;;;;;;15.02;12.80;;;;;;;19.03;100.00;101335.16;6249522;22;20472;-80
2023/09/13 00:13:02;;;;;;;14.35;12.27;;;;;;;19.01;100.00;101335.66;6249987;22;20051;-80
2023/09/13 00:15:29;;;;;;;14.32;12.02;;;;;;;18.98;100.00;101331.22;6249097;22;20043;-80
2023/09/13 00:17:56;;;;;;;13.98;12.10;;;;;;;18.97;100.00;101335.88;6222488;22;20044;-81
2023/09/13 00:20:22;;;;;;;15.50;12.55;;;;;;;18.97;100.00;101332.44;6248320;22;20020;-79
2023/09/13 00:22:49;;;;;;;14.90;12.20;;;;;;;18.98;100.00;101334.66;6249634;22;20016;-79
2023/09/13 00:25:16;;;;;;;16.27;12.02;;;;;;;18.99;100.00;101336.13;6249397;22;20462;-79
2023/09/13 00:27:42;;;;;;;16.05;12.25;;;;;;;18.99;100.00;101330.72;6249333;22;20072;-79
2023/09/13 00:30:11;;;;;;;15.60;13.10;;;;;;;18.98;100.00;101333.91;6222033;22;20017;-79
2023/09/13 00:32:37;;;;;;;17.70;12.18;;;;;;;18.97;100.00;101332.44;6248870;22;20071;-79
2023/09/13 00:35:04;;;;;;;13.65;12.20;;;;;;;18.96;100.00;101328.25;6196864;22;20083;-79
2023/09/13 00:37:31;;;;;;;13.00;11.75;;;;;;;18.97;100.00;101335.13;6222556;22;20017;-79
2023/09/13 00:39:58;;;;;;;14.23;12.05;;;;;;;18.92;100.00;101336.59;6197027;22;20414;-79
2023/09/13 00:42:25;;;;;;;13.60;12.27;;;;;;;18.88;100.00;101336.06;6221838;22;20021;-78
2023/09/13 00:44:51;;;;;;;14.32;12.65;;;;;;;18.87;100.00;101339.97;6222820;22;20020;-78
2023/09/13 00:47:18;;;;;;;14.30;12.25;;;;;;;18.87;100.00;101334.59;6197082;22;20024;-78
2023/09/13 00:49:47;;;;;;;13.90;12.30;;;;;;;18.85;100.00;101331.63;6221849;22;20042;-78
2023/09/13 00:52:14;;;;;;;13.30;11.75;;;;;;;18.83;100.00;101328.69;6196593;22;20021;-78
2023/09/13 00:54:41;;;;;;;13.32;11.60;;;;;;;18.81;100.00;101322.28;6197672;22;20513;-79
2023/09/13 00:57:08;;;;;;;14.40;11.90;;;;;;;18.77;100.00;101319.84;6223223;22;20048;-78
2023/09/13 00:59:35;;;;;;;12.65;11.35;;;;;;;18.73;100.00;101319.31;6223233;22;20078;-79
2023/09/13 01:02:01;;;;;;;13.68;11.75;;;;;;;18.73;100.00;101332.06;6250902;22;20092;-78
2023/09/13 01:04:28;;;;;;;12.65;11.43;;;;;;;18.74;100.00;101333.56;6222081;22;20413;-79
2023/09/13 01:06:55;;;;;;;13.25;11.85;;;;;;;18.72;100.00;101331.34;6198553;22;20017;-78
2023/09/13 01:09:22;;;;;;;14.32;11.85;;;;;;;18.70;100.00;101328.38;6249837;22;20017;-78
2023/09/13 01:11:50;;;;;;;14.35;11.77;;;;;;;18.71;100.00;101326.41;6223808;22;20040;-78
2023/09/13 01:14:16;;;;;;;12.40;11.13;;;;;;;18.69;100.00;101323.47;6250291;22;20409;-79
2023/09/13 01:17:05;;;;;;;12.98;11.70;;;;;;;18.70;100.00;101317.59;6250277;22;20774;-79
2023/09/13 01:19:45;;;;;;;14.23;11.70;;;;;;;18.69;100.00;101316.13;6223425;22;20021;-78
2023/09/13 01:22:30;;;;;;;12.68;11.38;;;;;;;18.68;100.00;101322.00;6223090;22;20099;-78
2023/09/13 01:25:20;;;;;;;13.93;11.60;;;;;;;18.65;100.00;101319.03;6223547;22;20075;-79
2023/09/13 01:28:23;;;;;;;12.82;11.60;;;;;;;18.63;100.00;101326.88;6250922;22;20016;-79
2023/09/13 01:30:50;;;;;;;12.35;11.23;;;;;;;18.59;100.00;101315.53;6223797;22;20017;-79
2023/09/13 01:33:17;;;;;;;13.13;11.63;;;;;;;18.58;100.00;101316.75;6222292;22;20075;-79
2023/09/13 01:35:43;;;;;;;14.93;11.63;;;;;;;18.56;100.00;101315.75;6223270;22;20020;-79
2023/09/13 01:38:10;;;;;;;13.05;11.65;;;;;;;18.53;100.00;101320.16;6250340;22;20013;-79
2023/09/13 01:40:39;;;;;;;13.50;11.73;;;;;;;18.53;100.00;101319.41;6223164;22;20464;-79
2023/09/13 01:43:07;;;;;;;13.68;11.57;;;;;;;18.51;100.00;101324.53;6250534;22;20473;-79
2023/09/13 01:45:36;;;;;;;13.00;11.50;;;;;;;18.50;100.00;101325.75;6250127;22;20021;-79
2023/09/13 01:48:04;;;;;;;13.48;11.77;;;;;;;18.50;100.00;101325.75;6222706;22;20021;-79
2023/09/13 01:50:31;;;;;;;17.88;11.30;;;;;;;18.48;100.00;101323.53;6249952;22;20280;-79
2023/09/13 01:53:01;;;;;;;12.98;10.80;;;;;;;18.48;100.00;101328.19;6250217;22;20020;-79
2023/09/13 01:55:28;;;;;;;14.33;11.57;;;;;;;18.44;100.00;101323.03;6249828;22;20017;-79
2023/09/13 01:57:55;;;;;;;13.30;11.80;;;;;;;18.40;100.00;101319.06;6223352;22;20023;-79
2023/09/13 02:00:21;;;;;;;12.90;11.68;;;;;;;18.33;100.00;101322.97;6222346;22;20461;-79
2023/09/13 02:02:48;;;;;;;14.07;10.70;;;;;;;18.32;100.00;101327.63;6198441;22;20020;-78
2023/09/13 02:05:15;;;;;;;14.43;11.02;;;;;;;18.32;100.00;101329.56;6249742;22;20024;-78
2023/09/13 02:07:41;;;;;;;12.52;11.23;;;;;;;18.27;100.00;101328.31;6197911;22;20024;-79
2023/09/13 02:10:08;;;;;;;11.77;10.68;;;;;;;18.27;100.00;101328.31;6249942;22;20016;-79
2023/09/13 02:12:34;;;;;;;15.50;11.85;;;;;;;18.25;100.00;101324.63;6223226;22;20024;-78
2023/09/13 02:15:01;;;;;;;17.65;12.05;;;;;;;18.21;100.00;101327.53;6249883;22;20017;-79
2023/09/13 02:17:28;;;;;;;12.30;11.00;;;;;;;18.21;100.00;101326.78;6222617;22;20569;-78
2023/09/13 02:19:54;;;;;;;11.50;10.38;;;;;;;18.19;100.00;101326.53;6223280;22;20071;-78
2023/09/13 02:22:21;;;;;;;13.95;11.55;;;;;;;18.17;100.00;101334.34;6197412;22;20016;-79
2023/09/13 02:24:48;;;;;;;14.18;11.32;;;;;;;18.16;100.00;101336.28;6250446;22;20021;-78
2023/09/13 02:27:14;;;;;;;12.77;11.20;;;;;;;18.15;100.00;101337.50;6198008;22;20056;-79
2023/09/13 02:29:41;;;;;;;13.35;11.23;;;;;;;18.15;100.00;101342.91;6249476;22;20012;-79
2023/09/13 02:32:07;;;;;;;12.25;10.90;;;;;;;18.13;100.00;101342.63;6249936;22;20092;-79
2023/09/13 02:34:34;;;;;;;11.73;10.52;;;;;;;18.15;100.00;101347.53;6222801;22;20020;-79
2023/09/13 02:37:01;;;;;;;12.23;10.55;;;;;;;18.15;100.00;101347.53;6223233;22;20443;-79
2023/09/13 02:39:34;;;;;;;15.27;9.85;;;;;;;18.15;100.00;101334.06;6222363;22;20016;-79
2023/09/13 02:42:02;;;;;;;11.10;10.10;;;;;;;18.14;100.00;101344.13;6223424;22;20027;-79
2023/09/13 02:44:32;;;;;;;10.40;9.40;;;;;;;18.13;100.00;101345.31;6221723;22;20029;-79
2023/09/13 02:47:00;;;;;;;13.57;9.85;;;;;;;18.12;100.00;101341.16;6250213;22;20017;-79
2023/09/13 02:49:27;;;;;;;12.50;9.90;;;;;;;18.13;100.00;101345.31;6222875;22;20024;-79
2023/09/13 02:51:54;;;;;;;11.20;10.02;;;;;;;18.13;100.00;101342.63;6198263;22;20414;-78
2023/09/13 02:54:21;;;;;;;10.63;9.70;;;;;;;18.14;100.00;101338.00;6222242;22;20086;-79
2023/09/13 02:56:49;;;;;;;12.63;10.15;;;;;;;18.14;100.00;101346.06;6250441;22;20143;-79
2023/09/13 02:59:16;;;;;;;11.73;10.23;;;;;;;18.13;100.00;101341.91;6221947;22;20016;-78
2023/09/13 03:01:43;;;;;;;11.15;10.10;;;;;;;18.12;100.00;101349.25;6249887;22;20036;-79
2023/09/13 03:04:11;;;;;;;14.88;10.98;;;;;;;18.11;100.00;101352.41;6222498;22;20459;-79
2023/09/13 03:06:39;;;;;;;12.10;10.73;;;;;;;18.11;100.00;101345.06;6222663;22;20492;-79
2023/09/13 03:09:06;;;;;;;13.02;10.73;;;;;;;18.11;100.00;101352.41;6222685;22;20020;-78
2023/09/13 03:11:38;;;;;;;15.52;11.57;;;;;;;18.11;100.00;101353.16;6197567;22;20023;-78
2023/09/13 03:14:05;;;;;;;13.27;11.07;;;;;;;18.11;100.00;101350.44;6222375;22;20414;-78
2023/09/13 03:16:33;;;;;;;12.00;10.82;;;;;;;18.11;100.00;101345.06;6222127;22;20047;-78
2023/09/13 03:19:01;;;;;;;16.65;12.10;;;;;;;18.10;100.00;101348.97;6250245;22;20012;-79
2023/09/13 03:21:34;;;;;;;14.95;12.48;;;;;;;18.09;100.00;101335.97;6222506;22;20016;-79
2023/09/13 03:24:00;;;;;;;15.60;12.65;;;;;;;18.10;100.00;101342.84;6250290;22;20517;-79
2023/09/13 03:26:27;;;;;;;14.00;12.35;;;;;;;18.10;100.00;101348.97;6222365;22;20446;-79
2023/09/13 03:28:55;;;;;;;14.52;13.07;;;;;;;18.09;100.00;101339.41;6197440;22;20521;-78
2023/09/13 03:31:24;;;;;;;20.65;13.23;;;;;;;18.08;100.00;101337.19;6249145;22;20012;-78
2023/09/13 03:33:55;;;;;;;20.50;13.80;;;;;;;18.06;100.00;101342.31;6223056;22;20058;-79
2023/09/13 03:36:25;;;;;;;20.45;15.15;;;;;;;18.04;100.00;101336.66;6222037;22;20016;-79
2023/09/13 03:38:53;;;;;;;20.45;15.18;;;;;;;18.03;100.00;101340.56;6223119;22;20023;-79
2023/09/13 03:41:22;;;;;;;20.70;16.35;;;;;;;18.03;100.00;101346.69;6221967;22;20413;-78
2023/09/13 03:43:50;;;;;;;20.10;16.80;;;;;;;18.05;100.00;101344.28;6221982;22;20434;-79
2023/09/13 03:46:17;;;;;;;20.92;17.05;;;;;;;18.06;100.00;101345.75;6222667;22;20024;-79
2023/09/13 03:48:45;;;;;;;23.05;16.75;;;;;;;18.06;100.00;101348.44;6222886;22;20027;-79
2023/09/13 03:51:16;;;;;;;21.48;17.92;;;;;;;18.04;100.00;101344.75;6222148;22;20017;-78
2023/09/13 03:53:43;;;;;;;23.48;18.38;;;;;;;18.00;100.00;101350.34;6249502;22;20435;-79
2023/09/13 03:56:11;;;;;;;27.75;17.90;;;;;;;17.96;100.00;101341.75;6197510;22;20016;-79
2023/09/13 03:58:39;;;;;;;21.25;17.67;;;;;;;17.94;100.00;101341.50;6221687;22;20012;-79
2023/09/13 04:01:06;;;;;;;27.27;19.23;;;;;;;17.93;100.00;101340.03;6222393;22;20064;-79
2023/09/13 04:03:33;;;;;;;24.02;18.30;;;;;;;17.92;100.00;101352.00;6197192;22;20147;-79
2023/09/13 04:06:00;;;;;;;23.45;17.98;;;;;;;17.91;100.00;101350.53;6222676;22;20118;-79
2023/09/13 04:08:28;;;;;;;24.50;18.80;;;;;;;17.90;100.00;101349.06;6197036;22;20076;-78
2023/09/13 04:10:56;;;;;;;25.83;18.75;;;;;;;17.89;100.00;101342.91;6222389;22;20012;-78
2023/09/13 04:13:22;;;;;;;22.70;18.92;;;;;;;17.88;100.00;101336.06;6248995;22;20024;-79
2023/09/13 04:15:51;;;;;;;24.27;18.60;;;;;;;17.88;100.00;101346.09;6222241;22;20020;-79
2023/09/13 04:18:17;;;;;;;23.35;19.05;;;;;;;17.85;100.00;101344.34;6221976;22;20036;-79
2023/09/13 04:20:46;;;;;;;23.30;18.45;;;;;;;17.84;100.00;101342.88;6222666;22;20027;-79
2023/09/13 04:23:14;;;;;;;23.33;18.83;;;;;;;17.82;100.00;101351.41;6222043;22;20418;-79
2023/09/13 04:25:41;;;;;;;27.25;19.88;;;;;;;17.80;100.00;101342.34;6221727;22;20570;-79
2023/09/13 04:28:10;;;;;;;25.98;20.08;;;;;;;17.80;100.00;101339.63;6221876;22;20048;-79
2023/09/13 04:30:37;;;;;;;28.88;19.80;;;;;;;17.79;100.00;101348.94;6223023;22;20420;-79
2023/09/13 04:33:06;;;;;;;24.05;19.75;;;;;;;17.79;100.00;101343.53;6223456;22;20031;-79
2023/09/13 04:35:33;;;;;;;29.90;20.90;;;;;;;17.78;100.00;101350.16;6223402;22;20095;-78
2023/09/13 04:38:00;;;;;;;32.40;20.40;;;;;;;17.78;100.00;101345.50;6251042;22;20016;-79
2023/09/13 04:40:27;;;;;;;27.60;20.60;;;;;;;17.78;100.00;101350.16;6222011;22;20027;-79
2023/09/13 04:43:13;;;;;;;30.73;20.17;;;;;;;17.79;100.00;101346.25;6198675;22;20021;-78
2023/09/13 04:45:41;;;;;;;28.20;20.45;;;;;;;17.77;100.00;101346.72;6203280;22;20020;-79
2023/09/13 04:48:07;;;;;;;26.55;20.77;;;;;;;17.77;100.00;101351.34;6223375;22;20514;-79
2023/09/13 04:50:35;;;;;;;30.38;21.05;;;;;;;17.77;100.00;101348.66;6223339;22;20340;-79
2023/09/13 04:53:01;;;;;;;31.85;21.00;;;;;;;17.76;100.00;101349.88;6223975;22;20021;-79
2023/09/13 04:55:28;;;;;;;31.77;21.92;;;;;;;17.74;100.00;101353.03;6197492;22;20046;-79
2023/09/13 04:57:55;;;;;;;37.67;22.27;;;;;;;17.72;100.00;101358.16;6224016;22;20044;-78
2023/09/13 05:00:25;;;;;;;31.02;21.58;;;;;;;17.71;100.00;101355.94;6249809;22;20435;-79
2023/09/13 05:02:52;;;;;;;30.92;22.55;;;;;;;17.71;100.00;101364.03;6223423;22;20021;-79
2023/09/13 05:05:18;;;;;;;29.67;21.15;;;;;;;17.71;100.00;101362.06;6250257;22;20016;-79
2023/09/13 05:07:45;;;;;;;31.08;21.90;;;;;;;17.69;100.00;101367.19;6250877;22;20116;-79
2023/09/13 05:10:12;;;;;;;34.35;22.52;;;;;;;17.68;100.00;101371.09;6249728;22;20012;-79
2023/09/13 05:12:38;;;;;;;30.58;22.38;;;;;;;17.66;100.00;101370.81;6223519;22;20017;-79
2023/09/13 05:15:06;;;;;;;31.58;22.48;;;;;;;17.65;100.00;101372.03;6250373;22;20020;-79
2023/09/13 05:17:32;;;;;;;30.88;21.85;;;;;;;17.63;100.00;101369.78;6250058;22;20376;-79
2023/09/13 05:19:59;;;;;;;34.60;22.90;;;;;;;17.62;100.00;101367.56;6250454;22;20017;-79
2023/09/13 05:22:25;;;;;;;35.88;22.92;;;;;;;17.62;100.00;101370.25;6249677;22;20459;-79
2023/09/13 05:24:52;;;;;;;33.67;22.23;;;;;;;17.60;100.00;101359.97;6250130;22;20362;-78
2023/09/13 05:27:19;;;;;;;35.00;22.42;;;;;;;17.59;100.00;101369.25;6222650;22;20056;-79
2023/09/13 05:29:45;;;;;;;34.88;22.90;;;;;;;17.57;100.00;101371.69;6222892;22;20029;-79
2023/09/13 05:32:12;;;;;;;38.08;24.20;;;;;;;17.58;100.00;101367.78;6249843;22;20021;-79
2023/09/13 05:34:38;;;;;;;35.42;23.05;;;;;;;17.58;100.00;101373.19;6222639;22;20421;-80
2023/09/13 05:37:05;;;;;;;34.00;22.80;;;;;;;17.60;100.00;101384.19;6223607;22;20013;-83
2023/09/13 05:39:31;;;;;;;32.90;23.63;;;;;;;17.63;100.00;101383.25;6197319;22;20020;-82
2023/09/13 05:42:01;;;;;;;35.25;23.77;;;;;;;17.64;100.00;101398.19;6223624;22;20039;-82
2023/09/13 05:44:28;;;;;;;36.42;24.48;;;;;;;17.65;100.00;101393.56;6249716;22;20023;-81
2023/09/13 05:46:54;;;;;;;38.70;23.45;;;;;;;17.66;100.00;101397.75;6251518;22;20095;-85
2023/09/13 05:49:21;;;;;;;37.28;24.08;;;;;;;17.66;100.00;101390.41;6249763;22;20091;-81
2023/09/13 05:51:49;;;;;;;39.20;24.67;;;;;;;17.68;100.00;101400.72;6250319;22;20024;-78
2023/09/13 05:54:16;;;;;;;29.98;18.90;;;;;;;17.64;100.00;101395.50;6249141;22;20016;-78
2023/09/13 05:56:43;;;;;;;22.38;15.30;;;;;;;17.60;100.00;101416.50;6250196;22;20051;-78
2023/09/13 05:59:10;;;;;;;11.70;9.95;;;;;;;17.58;100.00;101428.97;6250209;22;20017;-78
2023/09/13 06:01:37;;;;;;;7.78;3.25;;;;;;;17.42;100.00;101438.31;6250153;22;20028;-76
2023/09/13 06:04:05;;;;;;;2.45;2.13;;;;;;;17.34;100.00;101456.06;6250469;22;20012;-76
2023/09/13 06:06:33;;;;;;;2.92;2.25;;;;;;;17.21;100.00;101453.66;6250004;22;20490;-76
2023/09/13 06:09:03;;;;;;;5.97;1.42;;;;;;;17.16;100.00;101465.13;6249847;22;20064;-78
2023/09/13 06:11:31;;;;;;;1.85;1.15;;;;;;;17.09;100.00;101467.44;6249805;22;20083;-77
2023/09/13 06:13:58;;;;;;;0.80;0.80;;;;;;;16.99;100.00;101472.19;6250489;22;20067;-77
2023/09/13 06:16:25;;;;;;;3.33;0.70;;;;;;;16.95;100.00;101482.38;6249792;22;20433;-77
2023/09/13 06:18:52;;;;;;;0.75;0.43;;;;;;;16.89;100.00;101497.69;6250394;22;20454;-78
2023/09/13 06:21:19;;;;;;;0.80;0.50;;;;;;;16.78;100.00;101513.66;6249717;22;20402;-75
2023/09/13 06:23:47;;;;;;;0.47;0.47;;;;;;;16.65;100.00;101538.13;6249924;22;20079;-75
2023/09/13 06:26:14;;;;;;;2.13;0.50;;;;;;;16.58;100.00;101547.25;6249810;22;20078;-74
2023/09/13 06:28:40;;;;;;;0.68;0.52;;;;;;;16.51;100.00;101560.31;6223485;22;20043;-73
2023/09/13 06:31:08;;;;;;;0.80;0.80;;;;;;;16.41;100.00;101578.44;6250036;22;20048;-75
2023/09/13 06:33:43;;;;;;;0.50;0.50;;;;;;;16.33;100.00;101588.81;6250274;22;20008;-76
2023/09/13 06:36:10;;;;;;;1.67;0.65;;;;;;;16.28;100.00;101586.00;6249245;22;20023;-76
2023/09/13 06:38:37;;;;;;;1.67;1.15;;;;;;;16.20;100.00;101596.34;6249434;22;20455;-75
2023/09/13 06:41:04;;;;;;;1.10;1.00;;;;;;;16.17;100.00;101585.78;6249876;22;20402;-74
2023/09/13 06:43:31;;;;;;;3.47;1.20;;;;;;;16.19;100.00;101592.19;6249965;22;20051;-74
2023/09/13 06:46:18;;;;;;;0.73;0.73;;;;;;;16.14;100.00;101600.88;6249820;22;20013;-74
2023/09/13 06:48:46;;;;;;;1.05;0.95;;;;;;;16.10;100.00;101600.28;6250104;22;20095;-75
2023/09/13 06:51:13;;;;;;;0.98;0.80;;;;;;;16.11;100.00;101609.09;6248904;22;20362;-75
2023/09/13 06:53:43;;;;;;;4.13;0.80;;;;;;;16.07;100.00;101609.25;6249411;22;20093;-75
2023/09/13 06:56:11;;;;;;;1.85;1.02;;;;;;;16.01;100.00;101625.25;6249493;22;20501;-75
2023/09/13 06:58:42;;;;;;;2.05;0.88;;;;;;;15.95;100.00;101629.03;6249760;22;20024;-74
2023/09/13 07:01:13;;;;;;;0.77;0.73;;;;;;;15.88;100.00;101634.72;6222220;22;20027;-76
2023/09/13 07:03:59;;;;;;;1.40;0.90;;;;;;;15.83;100.00;101640.72;6250380;22;20019;-74
2023/09/13 07:06:33;;;;;;;2.05;0.90;;;;;;;15.78;100.00;101650.13;6249239;22;20055;-74
2023/09/13 07:09:00;;;;;;;2.45;1.52;;;;;;;15.76;100.00;101649.84;6250016;22;20037;-73
2023/09/13 07:11:28;;;;;;;2.05;1.27;;;;;;;15.72;99.99;101651.94;6222090;22;20125;-75
2023/09/13 07:13:55;;;;;;;2.45;1.30;;;;;;;15.69;99.72;101660.88;6250339;22;20017;-75
2023/09/13 07:16:21;;;;;;;3.67;1.63;;;;;;;15.73;100.00;101655.34;6249297;22;20442;-76
2023/09/13 07:18:48;;;;;;;1.23;1.23;;;;;;;15.81;99.12;101675.31;6249928;22;20019;-76
2023/09/13 07:21:15;;;;;;;3.38;1.58;;;;;;;15.84;99.42;101664.41;6221751;22;20027;-76
2023/09/13 07:23:41;;;;;;;6.22;1.40;;;;;;;15.82;98.72;101677.56;6222623;22;20024;-76
2023/09/13 07:26:08;;;;;;;4.65;1.58;;;;;;;15.84;98.18;101677.84;6249907;22;20023;-75
2023/09/13 07:28:36;;;;;;;2.03;1.73;;;;;;;15.86;96.56;101682.75;6249706;22;20017;-75
2023/09/13 07:31:10;;;;;;;1.40;1.30;;;;;;;15.96;97.62;101690.34;6222690;22;20175;-75
2023/09/13 07:33:36;;;;;;;2.28;1.80;;;;;;;16.09;96.04;101681.31;6222718;22;20020;-75
2023/09/13 07:36:03;;;;;;;5.15;1.40;;;;;;;16.09;95.89;101675.94;6222143;22;20016;-74
2023/09/13 07:38:30;;;;;;;3.88;1.90;;;;;;;16.09;94.58;101684.75;6221701;22;20034;-75
2023/09/13 07:40:56;;;;;;;4.53;2.20;;;;;;;16.05;94.16;101686.84;6222527;22;20441;-75
2023/09/13 07:43:23;;;;;;;2.63;2.00;;;;;;;16.19;94.76;101688.16;6249394;22;20016;-75
2023/09/13 07:45:50;;;;;;;4.03;2.00;;;;;;;16.45;92.73;101696.50;6249997;22;20435;-75
2023/09/13 07:48:17;;;;;;;3.00;2.08;;;;;;;16.60;91.77;101703.44;6249433;22;20016;-75
2023/09/13 07:50:45;;;;;;;3.30;1.67;;;;;;;16.66;91.35;101701.63;6222507;22;20021;-78
2023/09/13 07:53:12;;;;;;;3.63;1.70;;;;;;;16.64;88.72;101706.72;6253681;22;20018;-87
2023/09/13 07:55:39;;;;;;;4.40;1.77;;;;;;;16.68;88.43;101709.25;6257225;22;20027;-88
2023/09/13 07:58:07;;;;;;;3.53;1.65;;;;;;;16.86;86.58;101713.75;6255208;22;20012;-83
2023/09/13 08:00:34;;;;;;;2.40;1.60;;;;;;;16.95;85.98;101724.44;6223041;22;20016;-78
2023/09/13 08:03:02;;;;;;;4.57;1.63;;;;;;;17.04;85.92;101720.94;6249337;22;20020;-81
2023/09/13 08:05:29;;;;;;;3.95;1.75;;;;;;;17.17;86.13;101730.25;6221341;22;20446;-80
2023/09/13 08:07:56;;;;;;;3.35;1.80;;;;;;;17.32;83.85;101722.94;6249872;22;20392;-80
2023/09/13 08:10:24;;;;;;;2.80;1.75;;;;;;;17.52;82.76;101732.34;6248999;22;20017;-82
2023/09/13 08:12:51;;;;;;;4.88;2.03;;;;;;;17.68;82.12;101734.56;6222841;22;20016;-78
2023/09/13 08:15:18;;;;;;;5.68;1.80;;;;;;;17.79;80.71;101721.31;6249695;22;20017;-79
2023/09/13 08:17:53;;;;;;;2.58;1.48;;;;;;;17.76;79.17;101721.47;6249415;22;20044;-79
2023/09/13 08:20:20;;;;;;;7.72;2.00;;;;;;;17.74;79.78;101727.34;6249075;22;20023;-78
2023/09/13 08:22:47;;;;;;;3.70;1.70;;;;;;;17.72;79.22;101731.69;6249858;22;20013;-78
2023/09/13 08:25:13;;;;;;;3.63;1.20;;;;;;;17.81;78.75;101745.06;6249328;22;20099;-77
2023/09/13 08:27:40;;;;;;;2.30;1.67;;;;;;;17.89;78.89;101752.31;6249280;22;20017;-79
2023/09/13 08:30:08;;;;;;;3.25;2.00;;;;;;;17.89;79.57;101752.31;6249470;22;20101;-75
2023/09/13 08:32:36;;;;;;;2.90;1.50;;;;;;;17.97;79.26;101764.22;6248745;22;20020;-76
2023/09/13 08:35:03;;;;;;;1.67;1.48;;;;;;;18.24;78.11;101767.78;6249542;22;20055;-75
2023/09/13 08:37:30;;;;;;;4.63;1.48;;;;;;;18.47;76.32;101772.28;6248880;22;20068;-75
2023/09/13 08:39:57;;;;;;;2.35;1.60;;;;;;;18.56;76.85;101768.72;6249064;22;20478;-76
2023/09/13 08:42:25;;;;;;;1.83;1.50;;;;;;;18.53;75.88;101764.25;6248766;22;20064;-76
2023/09/13 08:44:54;;;;;;;4.03;1.63;;;;;;;18.73;75.75;101764.31;6249713;22;20450;-76
2023/09/13 08:47:22;;;;;;;5.53;1.55;;;;;;;18.85;75.02;101773.28;6248116;22;20024;-75
2023/09/13 08:49:51;;;;;;;3.90;1.75;;;;;;;19.05;73.48;101764.44;6249462;22;20016;-76
2023/09/13 08:52:19;;;;;;;3.78;1.48;;;;;;;19.06;72.90;101768.63;6222442;22;20404;-76
2023/09/13 08:54:48;;;;;;;2.10;1.55;;;;;;;19.04;73.58;101762.97;6249306;22;20021;-76
2023/09/13 08:57:25;;;;;;;3.90;1.38;;;;;;;19.09;73.65;101775.78;6248569;22;20063;-75
2023/09/13 08:59:53;;;;;;;3.30;1.50;;;;;;;19.33;72.80;101811.38;6249402;22;20021;-77
2023/09/13 09:02:23;;;;;;;2.60;1.48;;;;;;;19.34;72.80;101820.97;6247884;22;20036;-75
2023/09/13 09:04:51;;;;;;;2.28;1.45;;;;;;;19.24;72.33;101823.06;6222620;22;20020;-75
2023/09/13 09:07:19;;;;;;;2.60;1.50;;;;;;;19.45;71.56;101823.78;6249028;22;20482;-75
2023/09/13 09:09:49;;;;;;;2.67;1.55;;;;;;;19.59;70.16;101814.13;6249223;22;20016;-76
2023/09/13 09:12:17;;;;;;;2.58;1.40;;;;;;;19.73;69.66;101818.69;6248914;22;20013;-76
2023/09/13 09:14:46;;;;;;;1.67;1.50;;;;;;;19.86;69.98;101829.84;6249226;22;20024;-74
2023/09/13 09:17:16;;;;;;;7.40;2.15;;;;;;;19.90;69.21;101830.38;6249646;22;20019;-76
2023/09/13 09:19:44;;;;;;;3.22;1.85;;;;;;;19.86;69.10;101848.03;6250521;22;20017;-76
2023/09/13 09:22:11;;;;;;;5.15;2.15;;;;;;;19.47;68.87;101855.72;6248762;22;20024;-75
2023/09/13 09:24:40;;;;;;;2.05;1.80;;;;;;;19.53;69.68;101868.09;6249232;22;20017;-76
2023/09/13 09:27:06;;;;;;;2.42;1.75;;;;;;;19.80;68.55;101874.25;6249587;22;20039;-75
2023/09/13 09:29:37;;;;;;;3.60;2.20;;;;;;;20.12;68.73;101866.91;6250205;22;20020;-78
2023/09/13 09:32:07;;;;;;;3.50;1.60;;;;;;;20.15;69.03;101866.72;6222571;22;20029;-77
2023/09/13 09:34:41;;;;;;;2.45;1.92;;;;;;;20.07;68.59;101876.47;6250098;22;20440;-77
2023/09/13 09:37:09;;;;;;;2.10;1.90;;;;;;;19.87;68.65;101877.28;6249959;22;20047;-78
2023/09/13 09:39:37;;;;;;;3.65;1.75;;;;;;;19.94;68.84;101886.94;6250028;22;20514;-78
2023/09/13 09:42:05;;;;;;;2.03;1.85;;;;;;;19.79;68.34;101891.69;6249992;22;20451;-77
2023/09/13 09:44:32;;;;;;;8.65;2.00;;;;;;;20.27;68.22;101894.59;6222705;22;20040;-79
2023/09/13 09:46:59;;;;;;;2.80;1.60;;;;;;;20.38;67.09;101888.56;6197886;22;20086;-78
2023/09/13 09:49:25;;;;;;;2.95;1.55;;;;;;;20.04;65.54;101887.47;6222556;22;20021;-77
2023/09/13 09:51:53;;;;;;;3.05;2.05;;;;;;;20.38;65.72;101891.25;6249846;22;20047;-81
2023/09/13 09:54:20;;;;;;;4.25;2.22;;;;;;;20.93;64.11;101888.91;6222149;22;20354;-80
2023/09/13 09:56:47;;;;;;;2.72;2.00;;;;;;;20.56;63.39;101899.75;6250156;22;20471;-80
2023/09/13 09:59:13;;;;;;;4.68;1.92;;;;;;;20.02;64.38;101901.47;6222451;22;20020;-76
2023/09/13 10:01:42;;;;;;;6.25;1.92;;;;;;;20.03;65.70;101896.81;6249583;22;20080;-79
2023/09/13 10:04:10;;;;;;;4.20;2.10;;;;;;;19.90;65.48;101911.44;6249683;22;20071;-78
2023/09/13 10:06:54;;;;;;;6.15;2.20;;;;;;;20.11;65.38;101889.75;6249834;22;20032;-78
2023/09/13 10:09:21;;;;;;;5.10;2.28;;;;;;;20.13;66.20;101896.19;6249530;22;20017;-78
2023/09/13 10:11:54;;;;;;;9.27;2.60;;;;;;;19.99;66.71;101905.16;6249741;22;20040;-79
2023/09/13 10:14:27;;;;;;;4.85;2.33;;;;;;;19.63;67.49;101923.44;6249061;22;20083;-77
2023/09/13 10:16:55;;;;;;;4.65;2.03;;;;;;;19.40;67.76;101923.63;6250238;22;20048;-78
2023/09/13 10:19:26;;;;;;;3.80;2.35;;;;;;;19.65;66.53;101917.56;6249583;22;20017;-78
2023/09/13 10:21:54;;;;;;;3.78;2.10;;;;;;;19.84;65.67;101918.00;6249998;22;20023;-77
2023/09/13 10:24:23;;;;;;;5.68;2.08;;;;;;;19.89;65.60;101930.84;6249493;22;20417;-76
2023/09/13 10:26:53;;;;;;;4.88;2.13;;;;;;;19.89;66.25;101926.19;6249396;22;20040;-77
2023/09/13 10:29:40;;;;;;;4.78;1.90;;;;;;;20.06;65.75;101920.94;6248644;22;20020;-76
2023/09/13 10:32:11;;;;;;;4.63;2.08;;;;;;;20.20;63.94;101928.19;6249517;22;20012;-76
2023/09/13 10:34:47;;;;;;;4.60;1.80;;;;;;;20.24;65.20;101936.84;6249709;22;20096;-77
2023/09/13 10:37:29;;;;;;;3.85;1.70;;;;;;;20.25;64.97;101935.63;6249681;22;20083;-77
2023/09/13 10:40:09;;;;;;;2.55;1.50;;;;;;;20.17;65.30;101934.56;6249589;22;20017;-77
2023/09/13 10:42:40;;;;;;;3.58;1.50;;;;;;;20.23;64.44;101943.47;6249125;22;20013;-76
2023/09/13 10:45:07;;;;;;;;;;;;;;;20.21;65.81;101937.78;6223006;22;20079;-76
2023/09/13 10:47:36;;;;;;;2.42;1.30;;;;;;;20.14;63.25;101934.75;6249580;22;19920;-77
2023/09/13 10:50:05;;;;;;;3.22;1.60;;;;;;;20.00;63.30;101949.84;6249997;22;20104;-76
2023/09/13 10:52:34;;;;;;;1.42;1.20;;;;;;;20.09;64.16;101946.25;6249657;22;20512;-78
2023/09/13 10:55:05;;;;;;;2.67;1.27;;;;;;;20.22;64.90;101941.22;6250034;22;20023;-78
2023/09/13 10:57:34;;;;;;;2.83;1.75;;;;;;;20.24;64.26;101947.66;6249316;22;20019;-78
2023/09/13 11:00:08;;;;;;;3.90;1.27;;;;;;;20.10;64.26;101950.44;6250058;22;20628;-77
2023/09/13 11:02:36;;;;;;;3.55;1.20;;;;;;;20.14;64.78;101953.69;6249897;22;20438;-77
2023/09/13 11:05:04;;;;;;;2.70;1.40;;;;;;;20.09;64.58;101965.19;6222692;22;20071;-77
2023/09/13 11:07:40;;;;;;;3.03;1.30;;;;;;;20.08;65.26;101959.03;6249312;22;20067;-77
2023/09/13 11:10:14;;;;;;;2.78;1.50;;;;;;;19.90;66.93;101965.50;6249620;22;20091;-75
2023/09/13 11:12:48;;;;;;;2.95;1.30;;;;;;;19.74;68.80;101981.50;6249016;22;20020;-79
2023/09/13 11:15:24;;;;;;;6.57;1.50;;;;;;;19.42;69.60;101983.28;6249417;22;20092;-77
2023/09/13 11:17:56;;;;;;;4.97;1.83;;;;;;;19.23;70.06;102001.69;6249782;22;20024;-77